createdAt,value
2018-07-16T00:02:23.850Z,2.93
2018-07-16T00:04:51.526Z,3.27
2018-07-16T00:07:19.235Z,2.63
2018-07-16T00:09:46.958Z,2.97
2018-07-16T00:12:14.634Z,3.03
2018-07-16T00:14:42.301Z,2.93
2018-07-16T00:17:09.967Z,2.70
2018-07-16T00:19:37.586Z,3.03
2018-07-16T00:22:05.322Z,3.00
2018-07-16T00:24:33.046Z,2.90
2018-07-16T00:27:00.667Z,2.93
2018-07-16T00:29:28.378Z,3.13
2018-07-16T00:31:56.091Z,3.10
2018-07-16T00:34:23.780Z,3.17
2018-07-16T00:36:51.430Z,2.80
2018-07-16T00:39:19.047Z,3.13
2018-07-16T00:41:46.786Z,3.10
2018-07-16T00:44:14.398Z,3.03
2018-07-16T00:46:42.088Z,3.27
2018-07-16T00:49:09.703Z,3.50
2018-07-16T00:51:37.335Z,2.93
2018-07-16T00:54:05.505Z,3.43
2018-07-16T00:56:33.216Z,3.03
2018-07-16T00:59:00.873Z,3.50
2018-07-16T01:01:28.569Z,3.27
2018-07-16T01:03:56.331Z,3.20
2018-07-16T01:06:24.625Z,3.23
2018-07-16T01:08:52.282Z,3.27
2018-07-16T01:11:20.132Z,2.90
2018-07-16T01:13:47.813Z,3.07
2018-07-16T01:16:15.780Z,3.37
2018-07-16T01:18:43.478Z,3.33
2018-07-16T01:21:11.083Z,3.40
2018-07-16T01:23:38.695Z,3.13
2018-07-16T01:26:06.317Z,2.80
2018-07-16T01:28:33.990Z,3.10
2018-07-16T01:31:01.643Z,3.30
2018-07-16T01:33:29.289Z,2.97
2018-07-16T01:35:56.918Z,3.20
2018-07-16T01:38:24.658Z,2.80
2018-07-16T01:40:52.258Z,3.00
2018-07-16T01:43:19.834Z,3.37
2018-07-16T01:45:47.517Z,3.47
2018-07-16T01:48:15.161Z,3.47
2018-07-16T01:50:42.878Z,3.70
2018-07-16T01:53:10.514Z,3.43
2018-07-16T01:55:38.163Z,4.10
2018-07-16T01:58:05.831Z,3.70
2018-07-16T02:00:45.996Z,4.20
2018-07-16T02:03:13.598Z,4.03
2018-07-16T02:05:41.282Z,4.07
2018-07-16T02:08:08.972Z,3.67
2018-07-16T02:10:36.645Z,4.13
2018-07-16T02:13:04.410Z,4.47
2018-07-16T02:15:32.030Z,4.47
2018-07-16T02:17:59.982Z,4.63
2018-07-16T02:20:27.731Z,4.90
2018-07-16T02:22:55.326Z,4.20
2018-07-16T02:25:23.011Z,4.30
2018-07-16T02:27:50.618Z,4.53
2018-07-16T02:30:18.271Z,4.40
2018-07-16T02:32:45.849Z,4.00
2018-07-16T02:35:13.478Z,4.13
2018-07-16T02:37:41.078Z,4.03
2018-07-16T02:40:08.722Z,4.40
2018-07-16T02:42:36.350Z,4.00
2018-07-16T02:45:04.050Z,4.73
2018-07-16T02:47:31.702Z,4.47
2018-07-16T02:49:59.329Z,4.17
2018-07-16T02:52:26.942Z,3.80
2018-07-16T02:54:54.610Z,3.90
2018-07-16T02:57:22.231Z,3.97
2018-07-16T02:59:49.899Z,4.00
2018-07-16T03:02:17.573Z,4.07
2018-07-16T03:04:45.178Z,4.10
2018-07-16T03:07:12.898Z,4.00
2018-07-16T03:09:40.509Z,4.30
2018-07-16T03:12:08.551Z,3.90
2018-07-16T03:14:36.187Z,4.50
2018-07-16T03:17:03.867Z,4.50
2018-07-16T03:19:31.450Z,4.70
2018-07-16T03:21:59.199Z,4.40
2018-07-16T03:24:26.784Z,4.53
2018-07-16T03:26:54.479Z,4.87
2018-07-16T03:29:22.117Z,5.17
2018-07-16T03:31:49.799Z,4.13
2018-07-16T03:34:17.458Z,5.23
2018-07-16T03:36:45.126Z,5.10
2018-07-16T03:39:12.806Z,4.77
2018-07-16T03:41:40.489Z,5.60
2018-07-16T03:44:08.089Z,5.07
2018-07-16T03:46:35.859Z,5.20
2018-07-16T03:49:03.476Z,4.77
2018-07-16T03:51:31.166Z,5.60
2018-07-16T03:53:58.855Z,5.90
2018-07-16T03:56:26.467Z,5.53
2018-07-16T03:58:54.097Z,5.43
2018-07-16T04:01:21.794Z,6.23
2018-07-16T04:03:49.421Z,6.17
2018-07-16T04:06:17.045Z,5.73
2018-07-16T04:08:44.650Z,6.00
2018-07-16T04:11:12.282Z,6.50
2018-07-16T04:13:39.983Z,5.67
2018-07-16T04:16:07.721Z,6.33
2018-07-16T04:18:35.398Z,6.90
2018-07-16T04:21:03.018Z,5.90
2018-07-16T04:23:30.630Z,5.97
2018-07-16T04:25:58.313Z,5.73
2018-07-16T04:28:25.906Z,5.70
2018-07-16T04:30:53.637Z,5.83
2018-07-16T04:33:21.272Z,6.07
2018-07-16T04:35:48.905Z,5.73
2018-07-16T04:38:16.574Z,5.00
2018-07-16T04:40:44.184Z,5.60
2018-07-16T04:43:11.826Z,5.80
2018-07-16T04:45:39.522Z,5.33
2018-07-16T04:48:07.143Z,6.27
2018-07-16T04:50:34.813Z,6.10
2018-07-16T04:53:02.410Z,6.20
2018-07-16T04:55:30.035Z,6.60
2018-07-16T04:57:57.642Z,5.50
2018-07-16T05:00:25.251Z,6.50
2018-07-16T05:02:52.925Z,5.67
2018-07-16T05:05:20.594Z,5.70
2018-07-16T05:07:48.218Z,4.90
2018-07-16T05:10:35.127Z,5.97
2018-07-16T05:13:02.727Z,6.03
2018-07-16T05:15:30.423Z,4.80
2018-07-16T05:17:58.067Z,5.00
2018-07-16T05:20:25.695Z,4.83
2018-07-16T05:22:53.278Z,5.87
2018-07-16T05:25:20.973Z,6.20
2018-07-16T05:27:48.633Z,5.50
2018-07-16T05:30:16.246Z,5.10
2018-07-16T05:32:43.863Z,4.93
2018-07-16T05:35:11.488Z,5.80
2018-07-16T05:37:39.150Z,5.53
2018-07-16T05:40:06.799Z,6.23
2018-07-16T05:42:34.607Z,5.00
2018-07-16T05:45:02.265Z,4.83
2018-07-16T05:47:29.915Z,5.70
2018-07-16T05:49:57.525Z,5.40
2018-07-16T05:52:25.119Z,5.30
2018-07-16T05:54:52.736Z,5.03
2018-07-16T05:57:20.462Z,5.40
2018-07-16T05:59:48.062Z,4.67
2018-07-16T06:02:15.945Z,5.20
2018-07-16T06:04:43.537Z,5.13
2018-07-16T06:07:11.271Z,4.90
2018-07-16T06:09:38.886Z,5.30
2018-07-16T06:12:06.633Z,4.53
2018-07-16T06:14:34.297Z,5.10
2018-07-16T06:17:01.855Z,4.60
2018-07-16T06:19:29.538Z,4.70
2018-07-16T06:21:57.211Z,4.07
2018-07-16T06:24:24.929Z,3.53
2018-07-16T06:26:52.611Z,3.70
2018-07-16T06:29:20.381Z,4.10
2018-07-16T06:31:48.111Z,3.53
2018-07-16T06:34:15.854Z,3.23
2018-07-16T06:36:43.577Z,3.23
2018-07-16T06:39:11.267Z,3.20
2018-07-16T06:41:39.035Z,2.50
2018-07-16T06:44:07.447Z,3.17
2018-07-16T06:46:35.101Z,2.93
2018-07-16T06:49:02.763Z,3.10
2018-07-16T06:51:30.378Z,3.40
2018-07-16T06:53:58.053Z,2.87
2018-07-16T06:56:25.739Z,3.57
2018-07-16T06:58:53.482Z,3.20
2018-07-16T07:01:21.104Z,3.30
2018-07-16T07:03:48.791Z,3.87
2018-07-16T07:06:16.418Z,3.30
2018-07-16T07:08:44.046Z,4.27
2018-07-16T07:11:11.797Z,3.83
2018-07-16T07:13:39.470Z,3.40
2018-07-16T07:16:07.075Z,3.67
2018-07-16T07:18:34.767Z,3.13
2018-07-16T07:21:02.430Z,3.07
2018-07-16T07:23:30.107Z,3.67
2018-07-16T07:25:57.810Z,4.73
2018-07-16T07:28:25.438Z,3.60
2018-07-16T07:30:53.098Z,3.90
2018-07-16T07:33:20.746Z,3.40
2018-07-16T07:35:49.292Z,3.90
2018-07-16T07:38:16.985Z,4.30
2018-07-16T07:40:44.669Z,3.70
2018-07-16T07:43:12.279Z,3.90
2018-07-16T07:45:40.012Z,3.70
2018-07-16T07:48:07.638Z,3.73
2018-07-16T07:50:35.349Z,3.80
2018-07-16T07:53:02.979Z,3.23
2018-07-16T07:55:30.659Z,3.83
2018-07-16T07:57:58.247Z,3.57
2018-07-16T08:00:25.896Z,3.50
2018-07-16T08:02:53.826Z,3.67
2018-07-16T08:05:21.479Z,3.70
2018-07-16T08:07:49.163Z,3.70
2018-07-16T08:10:35.220Z,3.13
2018-07-16T08:13:02.866Z,3.63
2018-07-16T08:15:30.605Z,3.90
2018-07-16T08:17:58.431Z,3.17
2018-07-16T08:20:26.078Z,3.10
2018-07-16T08:22:53.764Z,3.50
2018-07-16T08:25:21.389Z,3.80
2018-07-16T08:27:49.081Z,3.60
2018-07-16T08:30:16.740Z,3.30
2018-07-16T08:32:44.374Z,3.47
2018-07-16T08:35:12.092Z,3.10
2018-07-16T08:37:40.943Z,3.10
2018-07-16T08:40:09.370Z,3.20
2018-07-16T08:42:37.111Z,3.30
2018-07-16T08:45:04.872Z,3.53
2018-07-16T08:47:32.518Z,3.10
2018-07-16T08:50:00.166Z,3.30
2018-07-16T08:52:27.758Z,3.33
2018-07-16T08:54:55.405Z,3.40
2018-07-16T08:57:23.107Z,3.40
2018-07-16T08:59:50.734Z,3.77
2018-07-16T09:02:18.415Z,3.40
2018-07-16T09:04:46.046Z,3.40
2018-07-16T09:07:13.771Z,3.27
2018-07-16T09:09:41.378Z,3.87
2018-07-16T09:12:09.042Z,3.37
2018-07-16T09:14:38.969Z,3.17
2018-07-16T09:17:09.455Z,3.10
2018-07-16T09:19:37.238Z,2.70
2018-07-16T09:22:05.009Z,3.40
2018-07-16T09:24:32.618Z,3.60
2018-07-16T09:27:00.262Z,3.50
2018-07-16T09:29:27.920Z,3.20
2018-07-16T09:31:55.590Z,3.13
2018-07-16T09:34:23.397Z,3.53
2018-07-16T09:36:51.046Z,2.93
2018-07-16T09:39:18.786Z,2.80
2018-07-16T09:41:46.434Z,3.10
2018-07-16T09:44:14.104Z,3.50
2018-07-16T09:46:41.911Z,3.23
2018-07-16T09:49:09.538Z,3.30
2018-07-16T09:51:37.142Z,3.20
2018-07-16T09:54:05.042Z,3.07
2018-07-16T09:56:32.741Z,3.60
2018-07-16T09:59:00.367Z,3.37
2018-07-16T10:01:33.943Z,2.83
2018-07-16T10:04:01.631Z,3.50
2018-07-16T10:06:29.314Z,3.00
2018-07-16T10:08:56.905Z,3.13
2018-07-16T10:11:24.725Z,3.30
2018-07-16T10:13:52.370Z,3.03
2018-07-16T10:16:20.003Z,3.03
2018-07-16T10:18:47.710Z,2.60
2018-07-16T10:21:15.367Z,2.87
2018-07-16T10:23:42.987Z,3.03
2018-07-16T10:26:10.721Z,2.73
2018-07-16T10:28:38.321Z,3.07
2018-07-16T10:31:06.068Z,3.00
2018-07-16T10:33:33.684Z,2.93
2018-07-16T10:36:01.395Z,3.20
2018-07-16T10:38:29.022Z,3.00
2018-07-16T10:40:56.643Z,2.83
2018-07-16T10:43:24.255Z,2.50
2018-07-16T10:45:51.892Z,2.40
2018-07-16T10:48:19.529Z,2.63
2018-07-16T10:50:47.299Z,2.43
2018-07-16T10:53:15.006Z,2.80
2018-07-16T10:55:42.745Z,2.63
2018-07-16T10:58:10.419Z,2.17
2018-07-16T11:00:38.018Z,2.60
2018-07-16T11:03:05.817Z,2.50
2018-07-16T11:05:33.563Z,2.80
2018-07-16T11:08:01.177Z,2.83
2018-07-16T11:10:36.007Z,2.37
2018-07-16T11:13:03.666Z,2.60
2018-07-16T11:15:31.319Z,2.60
2018-07-16T11:17:59.647Z,2.40
2018-07-16T11:20:27.318Z,2.50
2018-07-16T11:22:55.055Z,2.57
2018-07-16T11:25:22.690Z,2.43
2018-07-16T11:27:50.353Z,2.47
2018-07-16T11:30:18.010Z,2.77
2018-07-16T11:32:45.625Z,2.37
2018-07-16T11:35:13.238Z,2.33
2018-07-16T11:37:40.920Z,2.33
2018-07-16T11:40:08.534Z,2.40
2018-07-16T11:42:36.214Z,2.70
2018-07-16T11:45:03.969Z,2.33
2018-07-16T11:47:31.708Z,2.80
2018-07-16T11:49:59.426Z,2.43
2018-07-16T11:52:27.052Z,2.30
2018-07-16T11:54:54.728Z,2.33
2018-07-16T11:57:22.411Z,2.40
2018-07-16T11:59:50.062Z,2.20
2018-07-16T12:02:17.739Z,2.10
2018-07-16T12:04:45.334Z,2.30
2018-07-16T12:07:13.089Z,2.20
2018-07-16T12:09:40.730Z,2.60
2018-07-16T12:12:08.408Z,2.30
2018-07-16T12:14:36.064Z,2.50
2018-07-16T12:17:03.711Z,2.70
2018-07-16T12:19:31.351Z,2.30
2018-07-16T12:21:58.979Z,1.90
2018-07-16T12:24:26.656Z,2.00
2018-07-16T12:26:54.290Z,2.05
2018-07-16T12:29:21.904Z,2.05
2018-07-16T12:31:49.638Z,2.37
2018-07-16T12:34:17.350Z,2.15
2018-07-16T12:36:44.959Z,1.82
2018-07-16T12:39:12.698Z,2.42
2018-07-16T12:41:40.398Z,2.10
2018-07-16T12:44:07.994Z,2.25
2018-07-16T12:46:35.675Z,1.95
2018-07-16T12:49:03.332Z,2.08
2018-07-16T12:51:30.982Z,1.95
2018-07-16T12:53:58.610Z,2.20
2018-07-16T12:56:26.347Z,1.87
2018-07-16T12:58:54.085Z,2.35
2018-07-16T13:01:21.754Z,2.20
2018-07-16T13:03:49.358Z,2.22
2018-07-16T13:06:22.703Z,1.80
2018-07-16T13:08:51.102Z,1.80
2018-07-16T13:11:18.850Z,1.90
2018-07-16T13:13:46.514Z,1.80
2018-07-16T13:16:14.156Z,2.02
2018-07-16T13:18:41.989Z,1.80
2018-07-16T13:21:09.733Z,2.10
2018-07-16T13:23:37.436Z,2.05
2018-07-16T13:26:05.222Z,1.90
2018-07-16T13:28:32.978Z,2.05
2018-07-16T13:31:00.688Z,1.85
2018-07-16T13:33:28.462Z,1.70
2018-07-16T13:35:56.238Z,1.65
2018-07-16T13:38:23.975Z,1.90
2018-07-16T13:40:51.666Z,2.12
2018-07-16T13:43:19.422Z,1.75
2018-07-16T13:45:47.182Z,1.67
2018-07-16T13:48:14.812Z,1.90
2018-07-16T13:50:42.450Z,1.80
2018-07-16T13:53:10.093Z,1.60
2018-07-16T13:55:37.959Z,2.00
2018-07-16T13:58:05.756Z,1.77
2018-07-16T14:00:33.367Z,1.60
2018-07-16T14:03:01.402Z,2.00
2018-07-16T14:05:28.997Z,1.93
2018-07-16T14:07:56.698Z,1.90
2018-07-16T14:10:36.606Z,1.60
2018-07-16T14:13:04.600Z,1.60
2018-07-16T14:15:32.267Z,1.70
2018-07-16T14:17:59.989Z,1.73
2018-07-16T14:20:27.688Z,1.90
2018-07-16T14:22:55.414Z,1.53
2018-07-16T14:25:23.691Z,1.80
2018-07-16T14:27:51.364Z,1.30
2018-07-16T14:30:19.177Z,1.40
2018-07-16T14:32:46.766Z,1.53
2018-07-16T14:35:14.494Z,2.47
2018-07-16T14:37:42.203Z,14.77
2018-07-16T14:40:09.865Z,3.37
2018-07-16T14:42:37.515Z,1.80
2018-07-16T14:45:05.424Z,1.83
2018-07-16T14:47:33.165Z,2.47
2018-07-16T14:50:00.824Z,3.17
2018-07-16T14:52:28.426Z,2.10
2018-07-16T14:54:56.146Z,2.07
2018-07-16T14:57:23.829Z,2.03
2018-07-16T14:59:51.590Z,1.60
2018-07-16T15:02:19.178Z,1.80
2018-07-16T15:04:46.802Z,1.90
2018-07-16T15:07:14.425Z,1.80
2018-07-16T15:09:42.082Z,2.30
2018-07-16T15:12:09.899Z,2.03
2018-07-16T15:14:37.534Z,2.10
2018-07-16T15:17:05.170Z,2.40
2018-07-16T15:19:32.846Z,2.13
2018-07-16T15:22:00.678Z,2.23
2018-07-16T15:24:28.314Z,2.00
2018-07-16T15:26:55.968Z,4.00
2018-07-16T15:29:24.629Z,2.30
2018-07-16T15:31:52.286Z,2.30
2018-07-16T15:34:19.966Z,2.23
2018-07-16T15:36:47.590Z,2.20
2018-07-16T15:39:15.318Z,2.30
2018-07-16T15:41:43.036Z,2.20
2018-07-16T15:44:10.706Z,3.20
2018-07-16T15:46:38.422Z,3.50
2018-07-16T15:49:06.074Z,2.07
2018-07-16T15:51:34.505Z,2.00
2018-07-16T15:54:02.143Z,2.00
2018-07-16T15:56:29.745Z,2.20
2018-07-16T15:58:57.365Z,1.90
2018-07-16T16:01:25.066Z,1.63
2018-07-16T16:03:52.690Z,1.70
2018-07-16T16:06:20.370Z,2.10
2018-07-16T16:08:47.998Z,1.80
2018-07-16T16:11:15.691Z,1.60
2018-07-16T16:13:43.903Z,1.80
2018-07-16T16:16:11.534Z,1.90
2018-07-16T16:18:39.258Z,1.97
2018-07-16T16:21:06.935Z,1.57
2018-07-16T16:23:34.563Z,1.80
2018-07-16T16:26:02.531Z,1.83
2018-07-16T16:28:30.147Z,2.10
2018-07-16T16:30:57.838Z,1.50
2018-07-16T16:33:25.734Z,1.90
2018-07-16T16:35:53.346Z,1.90
2018-07-16T16:38:20.988Z,1.60
2018-07-16T16:40:48.635Z,2.30
2018-07-16T16:43:16.326Z,1.70
2018-07-16T16:45:45.821Z,1.90
2018-07-16T16:48:13.572Z,2.00
2018-07-16T16:50:42.224Z,1.73
2018-07-16T16:53:10.037Z,1.80
2018-07-16T16:55:37.687Z,1.90
2018-07-16T16:58:05.378Z,1.90
2018-07-16T17:00:33.031Z,1.90
2018-07-16T17:03:00.770Z,2.10
2018-07-16T17:05:28.491Z,1.83
2018-07-16T17:07:56.134Z,1.80
2018-07-16T17:10:35.819Z,2.00
2018-07-16T17:13:03.586Z,2.40
2018-07-16T17:15:31.313Z,1.90
2018-07-16T17:17:59.023Z,1.97
2018-07-16T17:20:26.637Z,1.60
2018-07-16T17:22:54.319Z,1.80
2018-07-16T17:25:22.238Z,2.13
2018-07-16T17:27:49.895Z,2.17
2018-07-16T17:30:17.496Z,2.10
2018-07-16T17:32:45.178Z,1.90
2018-07-16T17:35:12.822Z,1.93
2018-07-16T17:37:40.559Z,2.10
2018-07-16T17:40:08.237Z,1.90
2018-07-16T17:42:35.918Z,1.80
2018-07-16T17:45:03.674Z,1.90
2018-07-16T17:47:31.297Z,1.80
2018-07-16T17:49:59.139Z,2.13
2018-07-16T17:52:26.824Z,2.13
2018-07-16T17:54:54.498Z,2.00
2018-07-16T17:57:22.099Z,1.90
2018-07-16T17:59:49.978Z,2.10
2018-07-16T18:02:17.713Z,2.00
2018-07-16T18:04:45.322Z,1.87
2018-07-16T18:07:17.555Z,2.00
2018-07-16T18:09:45.530Z,2.00
2018-07-16T18:12:13.145Z,2.10
2018-07-16T18:14:40.850Z,1.80
2018-07-16T18:17:08.482Z,1.70
2018-07-16T18:19:36.146Z,2.00
2018-07-16T18:22:03.854Z,2.13
2018-07-16T18:24:31.486Z,2.10
2018-07-16T18:26:59.127Z,1.90
2018-07-16T18:29:26.841Z,1.60
2018-07-16T18:31:54.450Z,1.73
2018-07-16T18:34:22.066Z,2.03
2018-07-16T18:36:49.714Z,2.07
2018-07-16T18:39:17.611Z,2.00
2018-07-16T18:41:45.301Z,1.90
2018-07-16T18:44:12.928Z,1.90
2018-07-16T18:46:40.582Z,2.00
2018-07-16T18:49:08.298Z,2.00
2018-07-16T18:51:36.042Z,2.00
2018-07-16T18:54:03.706Z,2.13
2018-07-16T18:56:31.430Z,2.40
2018-07-16T18:58:59.219Z,2.07
2018-07-16T19:01:26.978Z,1.93
2018-07-16T19:03:54.636Z,2.10
2018-07-16T19:06:22.467Z,2.10
2018-07-16T19:08:50.103Z,2.00
2018-07-16T19:11:17.757Z,2.17
2018-07-16T19:13:51.127Z,2.20
2018-07-16T19:16:18.902Z,2.23
2018-07-16T19:18:46.499Z,2.40
2018-07-16T19:21:14.130Z,2.10
2018-07-16T19:23:41.773Z,2.10
2018-07-16T19:26:09.415Z,2.40
2018-07-16T19:28:37.093Z,2.10
2018-07-16T19:31:04.736Z,2.03
2018-07-16T19:33:32.360Z,2.10
2018-07-16T19:35:59.991Z,2.63
2018-07-16T19:38:27.821Z,1.90
2018-07-16T19:40:55.394Z,2.43
2018-07-16T19:43:23.081Z,2.40
2018-07-16T19:45:51.364Z,2.37
2018-07-16T19:48:19.026Z,2.33
2018-07-16T19:50:47.056Z,2.10
2018-07-16T19:53:14.594Z,2.50
2018-07-16T19:55:42.321Z,2.90
2018-07-16T19:58:10.097Z,2.83
2018-07-16T20:00:37.662Z,2.90
2018-07-16T20:03:05.993Z,3.10
2018-07-16T20:05:33.734Z,2.53
2018-07-16T20:08:01.508Z,2.70
2018-07-16T20:10:36.682Z,3.10
2018-07-16T20:13:04.306Z,3.83
2018-07-16T20:15:32.017Z,3.57
2018-07-16T20:17:59.697Z,2.80
2018-07-16T20:20:27.348Z,3.27
2018-07-16T20:22:55.001Z,2.70
2018-07-16T20:25:22.709Z,2.40
2018-07-16T20:27:51.139Z,2.50
2018-07-16T20:30:18.863Z,2.90
2018-07-16T20:32:46.514Z,2.43
2018-07-16T20:35:14.188Z,2.63
2018-07-16T20:37:41.993Z,2.10
2018-07-16T20:40:09.606Z,2.30
2018-07-16T20:42:37.346Z,2.23
2018-07-16T20:45:05.106Z,2.03
2018-07-16T20:47:32.806Z,2.70
2018-07-16T20:50:00.462Z,3.00
2018-07-16T20:52:28.065Z,2.70
2018-07-16T20:54:55.699Z,2.63
2018-07-16T20:57:23.394Z,3.03
2018-07-16T20:59:50.989Z,2.90
2018-07-16T21:02:18.671Z,2.73
2018-07-16T21:04:46.386Z,2.80
2018-07-16T21:07:14.197Z,2.47
2018-07-16T21:09:41.873Z,3.10
2018-07-16T21:12:09.506Z,2.90
2018-07-16T21:14:37.139Z,2.70
2018-07-16T21:17:04.825Z,2.60
2018-07-16T21:19:32.449Z,2.47
2018-07-16T21:22:01.901Z,2.50
2018-07-16T21:24:29.658Z,2.43
2018-07-16T21:26:57.361Z,2.60
2018-07-16T21:29:24.954Z,2.60
2018-07-16T21:31:52.668Z,2.90
2018-07-16T21:34:20.297Z,2.77
2018-07-16T21:36:47.881Z,2.87
2018-07-16T21:39:15.558Z,2.80
2018-07-16T21:41:43.478Z,2.63
2018-07-16T21:44:11.131Z,2.40
2018-07-16T21:46:38.753Z,2.30
2018-07-16T21:49:06.430Z,2.03
2018-07-16T21:51:34.070Z,3.13
2018-07-16T21:54:01.738Z,2.80
2018-07-16T21:56:29.388Z,2.60
2018-07-16T21:58:57.065Z,2.47
2018-07-16T22:01:24.766Z,2.50
2018-07-16T22:03:52.421Z,2.80
2018-07-16T22:06:19.998Z,2.97
2018-07-16T22:08:47.630Z,2.87
2018-07-16T22:11:15.236Z,3.27
2018-07-16T22:13:42.911Z,2.80
2018-07-16T22:16:10.583Z,3.07
2018-07-16T22:18:38.212Z,3.20
2018-07-16T22:21:05.802Z,3.47
2018-07-16T22:23:33.477Z,2.90
2018-07-16T22:26:01.037Z,2.70
2018-07-16T22:28:28.602Z,2.70
2018-07-16T22:30:56.221Z,2.83
2018-07-16T22:33:23.906Z,2.70
2018-07-16T22:35:51.558Z,3.23
2018-07-16T22:38:19.254Z,2.97
2018-07-16T22:40:47.538Z,2.90
2018-07-16T22:43:15.149Z,3.10
2018-07-16T22:45:42.865Z,2.90
2018-07-16T22:48:10.454Z,3.33
2018-07-16T22:50:38.081Z,3.13
2018-07-16T22:53:05.661Z,3.43
2018-07-16T22:55:33.270Z,2.90
2018-07-16T22:58:00.982Z,3.07
2018-07-16T23:00:28.577Z,2.93
2018-07-16T23:02:56.173Z,2.90
2018-07-16T23:05:23.805Z,2.87
2018-07-16T23:07:51.506Z,3.17
2018-07-16T23:10:19.134Z,3.00
2018-07-16T23:12:46.697Z,3.00
2018-07-16T23:15:14.683Z,3.20
2018-07-16T23:17:42.338Z,3.20
2018-07-16T23:20:09.927Z,3.50
2018-07-16T23:22:53.541Z,3.53
2018-07-16T23:25:21.529Z,3.17
2018-07-16T23:27:49.245Z,3.37
2018-07-16T23:30:16.929Z,2.87
2018-07-16T23:32:44.934Z,3.20
2018-07-16T23:35:12.818Z,3.40
2018-07-16T23:37:40.428Z,2.90
2018-07-16T23:40:08.070Z,3.03
2018-07-16T23:42:35.765Z,2.90
2018-07-16T23:45:03.986Z,2.97
2018-07-16T23:47:31.591Z,3.10
2018-07-16T23:49:59.405Z,3.50
2018-07-16T23:52:27.273Z,3.40
2018-07-16T23:54:54.886Z,3.20
2018-07-16T23:57:22.470Z,3.23
2018-07-16T23:59:50.065Z,3.87
